Time;durP1;ratioP1;P1;durP2;ratioP2;P2;SDS_P1;SDS_P2;PMS_P1;PMS_P2;Temp;Humidity;BMP_temperature;BMP_pressure;BME280_temperature;BME280_humidity;BME280_pressure;Samples;Min_cycle;Max_cycle;Signal;HPM_P1;HPM_P2
2023/01/03 00:01:36;;;;;;;13.60;10.00;;;3.60;99.90;;;;;;4986047;28;20046;-78
2023/01/03 00:04:02;;;;;;;11.05;7.75;;;3.50;99.90;;;;;;4969766;28;20519;-77
2023/01/03 00:06:31;;;;;;;14.80;7.85;;;3.50;99.90;;;;;;4957318;28;20043;-77
2023/01/03 00:08:58;;;;;;;9.75;8.35;;;3.50;99.90;;;;;;4987313;28;20046;-76
2023/01/03 00:14:17;;;;;;;11.65;7.28;;;3.40;99.90;;;;;;4985578;28;20058;-77
2023/01/03 00:16:42;;;;;;;14.50;9.40;;;3.40;99.90;;;;;;4986983;28;20034;-77
2023/01/03 00:19:11;;;;;;;13.48;9.57;;;3.30;99.90;;;;;;4985782;28;20049;-77
2023/01/03 00:21:37;;;;;;;20.27;13.73;;;3.20;99.90;;;;;;4984850;28;20081;-76
2023/01/03 00:24:04;;;;;;;13.35;9.82;;;3.20;99.90;;;;;;4986591;28;20048;-77
2023/01/03 00:26:30;;;;;;;19.77;13.15;;;3.20;99.90;;;;;;4969400;28;20386;-77
2023/01/03 00:28:56;;;;;;;13.32;11.13;;;3.20;99.90;;;;;;4970196;28;20049;-77
2023/01/03 00:31:22;;;;;;;23.58;18.17;;;3.20;99.90;;;;;;4937940;28;20049;-70
2023/01/03 00:33:48;;;;;;;14.32;12.35;;;3.20;99.90;;;;;;4970216;28;21343;-70
2023/01/03 00:36:13;;;;;;;25.63;18.80;;;3.20;99.90;;;;;;4967826;28;20295;-70
2023/01/03 00:38:39;;;;;;;27.48;17.92;;;3.20;99.90;;;;;;4968110;28;20042;-70
2023/01/03 00:41:08;;;;;;;17.50;14.38;;;3.20;99.90;;;;;;4953451;28;20492;-70
2023/01/03 00:43:35;;;;;;;25.38;17.85;;;3.10;99.90;;;;;;4984633;28;20412;-70
2023/01/03 00:46:01;;;;;;;22.92;18.10;;;3.20;99.90;;;;;;4953076;28;20105;-70
2023/01/03 00:48:27;;;;;;;29.40;20.42;;;3.20;99.90;;;;;;4968645;28;20118;-77
2023/01/03 00:50:54;;;;;;;29.55;20.90;;;3.20;99.90;;;;;;4986444;28;20034;-77
2023/01/03 00:53:20;;;;;;;22.33;19.17;;;3.20;99.90;;;;;;4985080;28;20046;-77
2023/01/03 00:55:47;;;;;;;20.67;17.27;;;3.20;99.90;;;;;;4985186;28;20045;-78
2023/01/03 00:58:12;;;;;;;22.42;19.15;;;3.30;99.90;;;;;;4984434;28;20051;-78
2023/01/03 01:00:38;;;;;;;27.92;20.10;;;3.20;99.90;;;;;;4985084;28;20069;-77
2023/01/03 01:03:04;;;;;;;28.20;21.60;;;3.20;99.90;;;;;;4968538;28;20137;-80
2023/01/03 01:05:30;;;;;;;29.40;21.67;;;3.20;99.90;;;;;;4986292;28;20073;-77
2023/01/03 01:07:57;;;;;;;23.02;17.73;;;3.20;99.90;;;;;;4969845;28;20492;-76
2023/01/03 01:10:23;;;;;;;27.83;19.70;;;3.30;99.90;;;;;;4968678;28;20137;-77
2023/01/03 01:12:49;;;;;;;27.02;20.55;;;3.20;99.90;;;;;;4967830;28;20045;-77
2023/01/03 01:15:15;;;;;;;27.02;20.33;;;3.20;99.90;;;;;;4969777;28;20042;-77
2023/01/03 01:17:41;;;;;;;27.73;20.58;;;3.30;99.90;;;;;;4965389;28;20049;-77
2023/01/03 01:20:07;;;;;;;29.73;21.20;;;3.30;99.90;;;;;;4986367;28;20555;-77
2023/01/03 01:22:34;;;;;;;28.17;21.40;;;3.20;99.90;;;;;;4985657;28;20054;-77
2023/01/03 01:25:00;;;;;;;29.77;21.67;;;3.30;99.90;;;;;;4980383;28;20520;-77
2023/01/03 01:27:26;;;;;;;27.58;20.48;;;3.30;99.90;;;;;;4985865;28;20093;-77
2023/01/03 01:29:52;;;;;;;30.00;21.70;;;3.30;99.90;;;;;;4966608;28;20046;-78
2023/01/03 01:32:18;;;;;;;31.67;22.98;;;3.30;99.90;;;;;;4967192;28;20035;-79
2023/01/03 01:34:44;;;;;;;22.20;19.10;;;3.30;99.90;;;;;;4983989;28;20121;-78
2023/01/03 01:37:13;;;;;;;28.40;21.60;;;3.20;99.90;;;;;;4969318;28;20042;-79
2023/01/03 01:39:39;;;;;;;28.73;21.80;;;3.30;99.90;;;;;;4966868;28;20838;-78
2023/01/03 01:44:55;;;;;;;;;;;3.20;99.90;;;;;;4984450;28;20056;-79
2023/01/03 01:47:26;;;;;;;32.25;25.52;;;3.20;99.90;;;;;;4983913;28;19921;-77
2023/01/03 01:50:03;;;;;;;31.15;22.70;;;3.20;99.90;;;;;;4979883;28;20050;-78
2023/01/03 01:52:33;;;;;;;25.67;21.45;;;3.20;99.90;;;;;;4983938;28;20089;-78
2023/01/03 01:55:01;;;;;;;37.72;26.13;;;3.20;99.90;;;;;;4984456;28;20049;-79
2023/01/03 01:57:29;;;;;;;30.33;23.15;;;3.20;99.90;;;;;;4984116;28;20049;-77
2023/01/03 01:59:55;;;;;;;28.35;22.75;;;3.20;99.90;;;;;;4951104;28;20054;-78
2023/01/03 02:02:22;;;;;;;29.17;23.20;;;3.20;99.90;;;;;;4966907;28;20141;-78
2023/01/03 02:04:52;;;;;;;33.45;24.83;;;3.20;99.90;;;;;;4966393;28;20113;-78
2023/01/03 02:07:21;;;;;;;40.15;27.30;;;3.20;99.90;;;;;;4984992;28;20057;-78
2023/01/03 02:09:48;;;;;;;36.50;25.15;;;3.20;99.90;;;;;;4966683;28;20042;-78
2023/01/03 02:15:14;;;;;;;;;;;3.10;99.90;;;;;;4984530;28;20090;-78
2023/01/03 02:17:52;;;;;;;36.13;25.90;;;3.10;99.90;;;;;;4970801;28;19934;-78
2023/01/03 02:20:27;;;;;;;45.08;28.60;;;3.10;99.90;;;;;;4966422;28;20043;-78
2023/01/03 02:23:47;;;;;;;35.35;25.63;;;3.10;99.90;;;;;;4965481;28;20648;-78
2023/01/03 02:26:43;;;;;;;37.00;26.40;;;3.10;99.90;;;;;;4908715;29;20505;-78
2023/01/03 02:29:30;;;;;;;32.65;25.35;;;3.10;99.90;;;;;;4982904;28;20057;-78
2023/01/03 02:32:14;;;;;;;39.25;28.10;;;3.00;99.90;;;;;;4979429;28;20160;-78
2023/01/03 02:34:49;;;;;;;37.35;27.92;;;3.00;99.90;;;;;;4982944;28;20050;-78
2023/01/03 02:37:41;;;;;;;34.60;27.98;;;3.00;99.90;;;;;;4960279;28;20046;-78
2023/01/03 02:40:37;;;;;;;42.08;30.10;;;3.10;99.90;;;;;;4948313;28;20086;-78
2023/01/03 02:43:15;;;;;;;41.53;29.83;;;3.00;99.90;;;;;;4982379;28;20057;-78
2023/01/03 02:46:05;;;;;;;49.55;32.55;;;3.00;99.90;;;;;;4966289;28;20061;-78
2023/01/03 02:48:43;;;;;;;40.28;30.23;;;3.10;99.90;;;;;;4968411;28;20153;-78
2023/01/03 02:51:31;;;;;;;49.97;30.50;;;3.10;99.90;;;;;;4983374;28;20493;-78
2023/01/03 02:53:59;;;;;;;42.67;31.58;;;3.10;99.90;;;;;;4948958;28;20057;-78
2023/01/03 02:56:32;;;;;;;46.67;32.00;;;3.10;99.90;;;;;;4966614;28;20061;-78
2023/01/03 02:59:03;;;;;;;43.13;30.55;;;3.10;99.90;;;;;;4984922;28;20049;-77
2023/01/03 03:01:31;;;;;;;38.00;27.92;;;3.10;99.90;;;;;;4984078;28;20061;-78
2023/01/03 03:03:58;;;;;;;39.28;28.80;;;3.10;99.90;;;;;;4970470;28;20101;-78
2023/01/03 03:06:57;;;;;;;39.40;27.60;;;3.10;99.90;;;;;;4969464;28;20053;-78
2023/01/03 03:09:24;;;;;;;38.33;27.45;;;3.10;99.90;;;;;;4983722;28;20050;-78
2023/01/03 03:14:41;;;;;;;43.80;29.52;;;3.10;99.90;;;;;;4984348;28;20128;-78
2023/01/03 03:17:27;;;;;;;37.25;27.83;;;3.10;99.90;;;;;;4986750;28;20471;-78
2023/01/03 03:25:43;;;;;;;38.92;28.95;;;3.00;99.90;;;;;;4981639;28;20061;-78
2023/01/03 03:31:21;;;;;;;37.27;29.30;;;2.90;99.90;;;;;;4988317;28;20054;-78
2023/01/03 03:34:05;;;;;;;43.53;31.08;;;2.90;99.90;;;;;;4969694;28;20050;-78
2023/01/03 03:36:49;;;;;;;44.90;30.17;;;2.90;99.90;;;;;;4970741;28;20739;-78
2023/01/03 03:45:17;;;;;;;52.72;33.72;;;2.90;99.90;;;;;;4981077;28;20381;-78
2023/01/03 03:48:10;;;;;;;43.58;32.45;;;2.80;99.90;;;;;;4972790;28;20057;-78
2023/01/03 03:50:48;;;;;;;45.90;32.55;;;2.90;99.90;;;;;;4987966;28;20057;-78
2023/01/03 03:53:16;;;;;;;42.40;31.67;;;2.90;99.90;;;;;;4971087;28;20065;-78
2023/01/03 03:55:48;;;;;;;47.55;33.67;;;2.80;99.90;;;;;;4990108;28;20132;-78
2023/01/03 03:58:26;;;;;;;46.45;34.08;;;2.80;99.90;;;;;;4968320;28;20103;-78
2023/01/03 04:00:55;;;;;;;53.80;37.53;;;2.80;99.90;;;;;;4989234;28;20062;-78
2023/01/03 04:03:22;;;;;;;60.08;37.22;;;2.80;99.90;;;;;;5005448;28;20042;-78
2023/01/03 04:06:01;;;;;;;52.15;37.33;;;2.80;99.90;;;;;;4973224;28;20095;-78
2023/01/03 04:08:27;;;;;;;54.17;37.30;;;2.80;99.90;;;;;;4989260;28;20049;-78
2023/01/03 04:11:04;;;;;;;76.32;43.45;;;2.80;99.90;;;;;;4988866;28;20041;-78
2023/01/03 04:13:33;;;;;;;60.33;39.65;;;2.80;99.90;;;;;;4959239;28;20142;-79
2023/01/03 04:16:05;;;;;;;55.30;38.33;;;2.80;99.90;;;;;;4988929;28;20038;-78
2023/01/03 04:18:31;;;;;;;63.72;41.35;;;2.80;99.90;;;;;;4956747;28;20061;-78
2023/01/03 04:20:57;;;;;;;57.85;39.10;;;2.80;99.90;;;;;;4974399;28;20038;-78
2023/01/03 04:23:23;;;;;;;104.63;52.22;;;2.80;99.90;;;;;;4989303;28;20492;-78
2023/01/03 04:25:49;;;;;;;70.82;45.95;;;2.80;99.90;;;;;;4990713;28;20504;-78
2023/01/03 04:28:16;;;;;;;86.97;49.28;;;2.80;99.90;;;;;;4956333;28;20057;-78
2023/01/03 04:30:42;;;;;;;76.40;45.15;;;2.80;99.90;;;;;;4989808;28;20046;-78
2023/01/03 04:33:08;;;;;;;69.78;44.05;;;2.80;99.90;;;;;;4989168;28;20515;-78
2023/01/03 04:35:34;;;;;;;65.72;43.20;;;2.80;99.90;;;;;;4990195;28;20076;-78
2023/01/03 04:38:01;;;;;;;65.95;42.58;;;2.90;99.90;;;;;;4974282;28;20104;-78
2023/01/03 04:40:27;;;;;;;73.05;44.25;;;2.90;99.90;;;;;;4974303;28;20130;-78
2023/01/03 04:45:37;;;;;;;70.15;44.83;;;3.00;99.90;;;;;;4989361;28;20566;-77
2023/01/03 04:48:07;;;;;;;56.97;39.42;;;3.00;99.90;;;;;;4956455;28;20034;-78
2023/01/03 04:50:33;;;;;;;67.07;43.03;;;3.00;99.90;;;;;;4989851;28;20038;-78
2023/01/03 04:52:59;;;;;;;59.47;39.22;;;3.00;99.90;;;;;;4969225;28;20092;-79
2023/01/03 04:55:25;;;;;;;66.20;42.65;;;3.00;99.90;;;;;;4954318;28;20046;-78
2023/01/03 04:57:51;;;;;;;57.80;39.22;;;3.20;99.90;;;;;;4989073;28;20041;-78
2023/01/03 05:00:17;;;;;;;52.88;37.63;;;3.10;99.90;;;;;;4967153;28;20042;-77
2023/01/03 05:02:43;;;;;;;58.85;39.95;;;3.10;99.90;;;;;;4969888;28;20938;-77
2023/01/03 05:05:09;;;;;;;53.90;37.45;;;3.10;99.90;;;;;;4970560;28;20101;-77
2023/01/03 05:07:38;;;;;;;59.38;40.58;;;3.10;99.90;;;;;;4987328;28;20606;-77
2023/01/03 05:10:07;;;;;;;52.88;38.42;;;3.20;99.90;;;;;;4987109;28;20042;-77
2023/01/03 05:12:33;;;;;;;55.67;40.17;;;3.20;99.90;;;;;;4988718;28;20051;-76
2023/01/03 05:14:58;;;;;;;60.30;40.38;;;3.20;99.90;;;;;;4970501;28;20046;-77
2023/01/03 05:17:24;;;;;;;56.55;40.30;;;3.20;99.90;;;;;;4986983;28;20157;-77
2023/01/03 05:28:06;;;;;;;55.47;37.42;;;3.20;99.90;;;;;;4968944;28;20382;-77
2023/01/03 05:30:32;;;;;;;48.85;35.38;;;3.20;99.90;;;;;;4985133;28;20058;-77
2023/01/03 05:32:57;;;;;;;50.95;35.42;;;3.20;99.90;;;;;;4987891;28;20065;-76
2023/01/03 05:35:23;;;;;;;55.45;37.80;;;3.20;99.90;;;;;;4986515;28;20082;-76
2023/01/03 05:37:52;;;;;;;50.72;36.78;;;3.20;99.90;;;;;;4985417;28;20038;-76
2023/01/03 05:40:21;;;;;;;55.72;38.30;;;3.20;99.90;;;;;;4987585;28;20051;-76
2023/01/03 05:42:47;;;;;;;54.40;36.42;;;3.10;99.90;;;;;;4958540;28;20879;-77
2023/01/03 05:45:13;;;;;;;49.47;35.25;;;3.10;99.90;;;;;;4954314;28;20603;-77
2023/01/03 05:47:38;;;;;;;55.70;36.45;;;3.10;99.90;;;;;;4953853;28;20137;-77
2023/01/03 05:50:05;;;;;;;53.63;37.05;;;3.10;99.90;;;;;;4986040;28;20038;-79
2023/01/03 05:52:30;;;;;;;55.40;37.45;;;3.10;99.90;;;;;;4984710;28;20073;-77
2023/01/03 05:54:56;;;;;;;49.65;36.00;;;3.00;99.90;;;;;;4970385;28;20116;-77
2023/01/03 05:57:22;;;;;;;49.60;36.22;;;3.00;99.90;;;;;;4968668;28;20293;-77
2023/01/03 05:59:48;;;;;;;66.15;37.92;;;3.00;99.90;;;;;;4986839;28;20057;-76
2023/01/03 06:02:14;;;;;;;52.80;33.88;;;2.90;99.90;;;;;;4968895;28;20054;-77
2023/01/03 06:04:39;;;;;;;46.95;33.63;;;2.90;99.90;;;;;;4985655;28;20049;-77
2023/01/03 06:07:05;;;;;;;49.58;33.55;;;2.80;99.90;;;;;;4986083;28;20042;-77
2023/01/03 06:09:31;;;;;;;54.25;35.67;;;2.80;99.90;;;;;;4949034;28;20229;-77
2023/01/03 06:11:57;;;;;;;47.35;34.75;;;2.70;99.90;;;;;;4984885;28;20132;-71
2023/01/03 06:14:23;;;;;;;51.85;36.38;;;2.70;99.90;;;;;;4951804;28;20047;-70
2023/01/03 06:19:33;;;;;;;43.15;33.10;;;2.70;99.90;;;;;;4986748;28;20047;-70
2023/01/03 06:21:58;;;;;;;53.53;37.50;;;2.60;99.90;;;;;;4969727;28;20065;-70
2023/01/03 06:24:24;;;;;;;53.45;37.45;;;2.60;99.90;;;;;;4983739;28;20074;-70
2023/01/03 06:26:50;;;;;;;48.58;36.72;;;2.60;99.90;;;;;;4969953;28;20053;-70
2023/01/03 06:29:16;;;;;;;55.80;39.03;;;2.60;99.90;;;;;;4959671;28;20053;-70
2023/01/03 06:31:41;;;;;;;43.72;34.30;;;2.50;99.90;;;;;;4954366;28;20054;-70
2023/01/03 06:34:07;;;;;;;46.28;35.78;;;2.50;99.90;;;;;;4984491;28;20053;-70
2023/01/03 06:36:33;;;;;;;47.25;35.97;;;2.50;99.90;;;;;;4969618;28;20424;-70
2023/01/03 06:38:59;;;;;;;52.10;39.58;;;2.50;99.90;;;;;;4965747;28;20104;-70
2023/01/03 06:41:25;;;;;;;47.33;38.95;;;2.50;99.90;;;;;;4967767;28;20516;-70
2023/01/03 06:43:53;;;;;;;64.97;45.10;;;2.40;99.90;;;;;;4966120;28;20125;-70
2023/01/03 06:54:36;;;;;;;52.07;42.53;;;2.40;99.90;;;;;;4971383;28;20061;-70
2023/01/03 06:57:04;;;;;;;56.70;43.10;;;2.40;99.90;;;;;;4972153;28;20034;-70
2023/01/03 06:59:30;;;;;;;52.83;41.27;;;2.30;99.90;;;;;;4950126;28;20051;-70
2023/01/03 07:01:56;;;;;;;50.47;42.45;;;2.30;99.90;;;;;;4981782;28;20092;-70
2023/01/03 07:04:24;;;;;;;54.65;43.08;;;2.30;99.90;;;;;;4984796;28;20038;-70
2023/01/03 07:06:50;;;;;;;51.90;42.30;;;2.30;99.90;;;;;;4976514;28;20505;-70
2023/01/03 07:09:16;;;;;;;66.70;48.78;;;2.30;99.90;;;;;;4968235;28;20100;-70
2023/01/03 07:11:42;;;;;;;61.77;46.73;;;2.30;99.90;;;;;;4985324;28;20084;-71
2023/01/03 07:14:10;;;;;;;64.20;46.07;;;2.30;99.90;;;;;;4953590;28;20041;-70
2023/01/03 07:16:39;;;;;;;56.07;44.63;;;2.30;99.90;;;;;;4978517;28;20146;-71
2023/01/03 07:19:07;;;;;;;54.37;44.50;;;2.30;99.90;;;;;;4982773;28;20038;-70
2023/01/03 07:21:34;;;;;;;59.10;46.60;;;2.30;99.90;;;;;;4967429;28;20058;-70
2023/01/03 07:24:02;;;;;;;62.13;45.53;;;2.30;99.90;;;;;;4985922;28;20038;-70
2023/01/03 07:26:29;;;;;;;56.17;45.03;;;2.20;99.90;;;;;;4984283;28;20145;-71
2023/01/03 07:28:56;;;;;;;58.07;44.30;;;2.20;99.90;;;;;;4969198;28;20145;-71
2023/01/03 07:31:22;;;;;;;56.87;45.20;;;2.20;99.90;;;;;;4985812;28;20046;-71
2023/01/03 07:33:48;;;;;;;60.65;46.28;;;2.20;99.90;;;;;;4965281;28;20614;-70
2023/01/03 07:36:15;;;;;;;60.70;48.00;;;2.20;99.90;;;;;;4967882;28;20049;-70
2023/01/03 07:38:43;;;;;;;68.72;50.05;;;2.20;99.90;;;;;;4983312;28;20522;-70
2023/01/03 07:41:10;;;;;;;59.03;47.50;;;2.20;99.90;;;;;;4984583;28;20042;-70
2023/01/03 07:43:38;;;;;;;80.00;54.73;;;2.20;99.90;;;;;;4965512;28;20073;-70
2023/01/03 07:46:22;;;;;;;65.20;51.00;;;2.10;99.90;;;;;;4985099;28;20045;-71
2023/01/03 07:48:50;;;;;;;62.87;48.87;;;2.10;99.90;;;;;;4968663;28;20042;-70
2023/01/03 07:51:19;;;;;;;79.53;54.40;;;2.00;99.90;;;;;;4984708;28;20050;-70
2023/01/03 07:53:48;;;;;;;143.67;61.27;;;2.00;99.90;;;;;;4982039;28;20077;-70
2023/01/03 07:56:18;;;;;;;129.27;51.23;;;2.00;99.90;;;;;;4984769;28;20149;-70
2023/01/03 07:58:45;;;;;;;;;;;1.90;99.90;;;;;;4983354;28;20046;-75
2023/01/03 08:01:21;;;;;;;151.90;51.73;;;1.80;99.90;;;;;;4983639;28;19922;-75
2023/01/03 08:03:48;;;;;;;184.53;55.40;;;1.70;99.90;;;;;;4980006;28;20038;-74
2023/01/03 08:06:20;;;;;;;269.10;63.90;;;1.70;99.90;;;;;;4968177;28;20057;-75
2023/01/03 08:13:16;;;;;;;173.03;55.33;;;1.70;99.90;;;;;;4967065;28;20061;-75
2023/01/03 08:14:16;;;;;;;239.27;63.40;;;1.60;99.90;;;;;;4971252;28;20133;-75
2023/01/03 08:16:41;;;;;;;151.10;49.33;;;1.60;99.90;;;;;;4983005;28;20145;-75
2023/01/03 08:19:07;;;;;;;358.47;74.03;;;1.60;99.90;;;;;;4968085;28;20557;-75
2023/01/03 08:21:33;;;;;;;221.60;56.10;;;1.60;99.90;;;;;;4963795;28;20042;-75
2023/01/03 08:23:59;;;;;;;219.80;61.30;;;1.60;99.90;;;;;;4982722;28;20493;-75
2023/01/03 08:26:25;;;;;;;167.57;54.50;;;1.60;99.90;;;;;;4984183;28;20057;-75
2023/01/03 08:28:50;;;;;;;249.23;60.17;;;1.70;99.90;;;;;;4950500;28;20072;-75
2023/01/03 08:31:27;;;;;;;349.70;69.43;;;1.70;99.90;;;;;;4945477;28;20097;-75
2023/01/03 08:34:03;;;;;;;372.90;75.57;;;1.70;99.90;;;;;;4969647;28;20113;-74
2023/01/03 08:36:34;;;;;;;150.47;52.57;;;1.80;99.90;;;;;;4969988;28;20513;-74
2023/01/03 08:39:06;;;;;;;298.63;67.80;;;1.90;99.90;;;;;;4958496;28;20112;-75
2023/01/03 08:41:37;;;;;;;328.87;70.83;;;1.90;99.90;;;;;;4984310;28;20509;-75
2023/01/03 08:44:07;;;;;;;242.73;64.23;;;2.00;99.90;;;;;;4959503;28;20047;-75
2023/01/03 08:46:34;;;;;;;391.40;75.80;;;2.10;99.90;;;;;;4983254;28;20038;-75
2023/01/03 08:49:00;;;;;;;322.30;68.80;;;2.10;99.90;;;;;;4967306;28;20039;-75
2023/01/03 08:51:29;;;;;;;305.13;64.87;;;2.20;99.90;;;;;;4950923;28;20101;-75
2023/01/03 08:53:55;;;;;;;384.03;73.47;;;2.30;99.90;;;;;;4987153;28;20581;-75
2023/01/03 08:56:21;;;;;;;410.30;79.43;;;2.30;99.90;;;;;;4950923;28;20405;-74
2023/01/03 08:58:46;;;;;;;475.60;84.23;;;2.40;99.90;;;;;;4970236;28;20054;-75
2023/01/03 09:01:13;;;;;;;387.73;81.50;;;2.50;99.90;;;;;;4967653;28;20043;-71
2023/01/03 09:03:39;;;;;;;436.97;85.70;;;2.50;99.90;;;;;;4983868;28;20050;-71
2023/01/03 09:06:06;;;;;;;558.15;98.78;;;2.60;99.90;;;;;;4957058;28;20061;-70
2023/01/03 09:08:32;;;;;;;587.13;100.07;;;2.60;99.90;;;;;;4968981;28;20045;-71
2023/01/03 09:11:06;;;;;;;341.30;76.40;;;2.70;99.90;;;;;;4985875;28;20046;-71
2023/01/03 09:13:33;;;;;;;433.75;87.63;;;2.80;99.90;;;;;;4985324;28;20494;-71
2023/01/03 09:16:04;;;;;;;420.67;87.32;;;2.90;99.90;;;;;;4959575;28;20046;-71
2023/01/03 09:18:30;;;;;;;329.70;77.78;;;2.90;99.90;;;;;;4956065;28;20546;-71
2023/01/03 09:20:56;;;;;;;570.67;109.47;;;3.10;99.90;;;;;;4966147;28;20038;-71
2023/01/03 09:23:22;;;;;;;422.30;92.43;;;3.10;99.90;;;;;;4954335;28;21046;-72
2023/01/03 09:25:48;;;;;;;445.85;97.47;;;3.20;99.90;;;;;;4946651;28;20505;-71
2023/01/03 09:28:13;;;;;;;394.67;91.97;;;3.20;99.90;;;;;;4963580;28;20134;-72
2023/01/03 09:30:42;;;;;;;417.73;101.68;;;3.30;99.90;;;;;;4944625;28;20813;-71
2023/01/03 09:33:09;;;;;;;421.73;101.22;;;3.40;99.90;;;;;;4973700;28;20049;-71
2023/01/03 09:35:36;;;;;;;389.55;100.15;;;3.50;99.90;;;;;;4962359;28;20047;-71
2023/01/03 09:38:03;;;;;;;500.23;113.97;;;3.60;99.90;;;;;;4964289;28;20539;-75
2023/01/03 09:40:30;;;;;;;391.30;106.68;;;3.70;99.90;;;;;;4944839;28;20053;-74
2023/01/03 09:43:13;;;;;;;387.30;109.65;;;3.80;99.90;;;;;;4965661;28;20119;-75
2023/01/03 09:45:45;;;;;;;323.52;98.63;;;3.80;99.90;;;;;;4981873;28;20498;-75
2023/01/03 09:48:18;;;;;;;369.33;107.13;;;3.90;99.90;;;;;;4984329;28;20361;-75
2023/01/03 09:50:45;;;;;;;304.48;102.47;;;4.00;99.90;;;;;;4979204;28;20046;-75
2023/01/03 10:05:32;;;;;;;213.32;90.28;;;4.20;99.90;;;;;;4985775;28;20045;-70
2023/01/03 10:08:07;;;;;;;235.75;93.45;;;4.30;99.90;;;;;;4997381;28;20038;-71
2023/01/03 10:10:58;;;;;;;211.20;91.22;;;4.30;99.90;;;;;;4966850;28;20513;-70
2023/01/03 10:13:24;;;;;;;226.07;93.65;;;4.30;99.90;;;;;;4964134;28;20457;-71
2023/01/03 10:15:52;;;;;;;228.23;92.45;;;4.30;99.90;;;;;;4967076;28;20081;-71
2023/01/03 10:18:34;;;;;;;206.45;86.25;;;4.40;99.90;;;;;;4964745;28;20141;-75
2023/01/03 10:21:15;;;;;;;202.23;87.43;;;4.40;99.90;;;;;;4980220;28;20053;-75
2023/01/03 10:23:42;;;;;;;229.05;91.47;;;4.50;99.90;;;;;;4966885;28;20041;-78
2023/01/03 10:26:10;;;;;;;209.40;87.80;;;4.50;99.90;;;;;;4969663;28;20496;-78
2023/01/03 10:28:40;;;;;;;199.45;87.05;;;4.60;99.90;;;;;;4955255;28;20463;-77
2023/01/03 10:31:43;;;;;;;216.30;92.30;;;4.60;99.90;;;;;;4969898;28;20045;-78
2023/01/03 10:34:10;;;;;;;189.77;85.90;;;4.70;99.90;;;;;;4969568;28;20045;-78
2023/01/03 10:36:39;;;;;;;182.48;85.97;;;4.70;99.90;;;;;;4985259;28;20037;-78
2023/01/03 10:39:09;;;;;;;202.48;90.05;;;4.80;99.90;;;;;;4970426;28;20046;-79
2023/01/03 10:41:46;;;;;;;183.57;86.30;;;4.90;99.90;;;;;;4983979;28;20156;-78
2023/01/03 10:44:24;;;;;;;173.27;84.68;;;4.90;99.90;;;;;;4985099;28;20057;-78
2023/01/03 10:46:53;;;;;;;176.68;86.43;;;5.10;99.90;;;;;;4985498;28;20042;-78
2023/01/03 10:49:24;;;;;;;192.52;84.60;;;5.00;99.90;;;;;;4983905;28;20045;-78
2023/01/03 10:52:14;;;;;;;172.18;84.38;;;5.00;99.90;;;;;;4969472;28;20053;-79
2023/01/03 10:54:52;;;;;;;173.40;81.68;;;5.10;99.90;;;;;;4967867;28;20378;-77
2023/01/03 10:57:47;;;;;;;170.05;83.13;;;5.20;99.90;;;;;;4968897;28;20057;-78
2023/01/03 11:00:27;;;;;;;164.85;79.60;;;5.30;99.90;;;;;;4962511;28;20115;-75
2023/01/03 11:02:54;;;;;;;;;;;5.30;99.90;;;;;;4966945;28;20046;-76
2023/01/03 11:05:25;;;;;;;117.22;66.65;;;5.40;99.90;;;;;;4967490;28;19979;-75
2023/01/03 11:07:57;;;;;;;104.85;64.75;;;5.40;99.90;;;;;;4982705;28;20500;-76
2023/01/03 11:10:29;;;;;;;107.03;64.13;;;5.50;99.90;;;;;;4963779;28;20131;-77
2023/01/03 11:12:55;;;;;;;110.15;68.53;;;5.60;99.90;;;;;;4982196;28;20129;-76
2023/01/03 11:15:31;;;;;;;121.82;69.65;;;5.60;99.90;;;;;;4981318;28;20117;-75
2023/01/03 11:18:03;;;;;;;104.55;66.65;;;5.70;99.90;;;;;;4961853;28;20465;-75
2023/01/03 11:20:57;;;;;;;93.32;61.13;;;5.70;99.90;;;;;;4983956;28;20046;-76
2023/01/03 11:23:48;;;;;;;98.45;63.47;;;5.80;99.90;;;;;;4959617;28;20045;-75
2023/01/03 11:26:38;;;;;;;93.90;62.28;;;5.80;99.90;;;;;;4966592;28;21083;-75
2023/01/03 11:29:15;;;;;;;101.03;63.80;;;5.90;99.90;;;;;;4965927;28;20038;-75
2023/01/03 11:32:04;;;;;;;95.72;61.00;;;5.90;99.90;;;;;;4984394;28;20050;-75
2023/01/03 11:34:48;;;;;;;93.75;60.60;;;6.00;99.90;;;;;;4976554;28;20089;-75
2023/01/03 11:37:14;;;;;;;83.97;57.15;;;6.00;99.90;;;;;;4976844;28;20042;-74
2023/01/03 11:39:58;;;;;;;74.43;53.83;;;6.00;99.90;;;;;;4962892;28;20371;-75
2023/01/03 11:42:38;;;;;;;73.68;52.60;;;6.00;99.90;;;;;;4973661;28;20058;-75
2023/01/03 11:45:30;;;;;;;75.88;52.83;;;6.00;99.90;;;;;;4973416;28;20104;-75
2023/01/03 11:48:05;;;;;;;71.68;51.35;;;6.00;99.90;;;;;;4977816;28;20053;-76
2023/01/03 11:51:02;;;;;;;64.63;48.78;;;6.10;99.90;;;;;;4984949;28;20049;-76
2023/01/03 11:53:51;;;;;;;67.57;47.88;;;6.10;99.90;;;;;;4961730;28;20420;-76
2023/01/03 11:56:45;;;;;;;57.83;43.87;;;6.10;99.90;;;;;;4982358;28;20333;-76
2023/01/03 11:59:30;;;;;;;64.13;46.05;;;6.10;99.90;;;;;;4981506;28;20344;-75
2023/01/03 12:02:15;;;;;;;61.40;46.80;;;6.10;99.90;;;;;;4986926;28;20065;-76
2023/01/03 12:05:15;;;;;;;63.42;45.88;;;6.10;99.90;;;;;;4964553;28;20085;-76
2023/01/03 12:08:18;;;;;;;55.40;43.92;;;6.20;99.90;;;;;;4965298;28;20471;-76
2023/01/03 12:10:52;;;;;;;59.38;44.80;;;6.20;99.90;;;;;;4962550;28;20564;-76
2023/01/03 12:13:35;;;;;;;62.25;46.45;;;6.20;99.90;;;;;;4973524;28;20054;-75
2023/01/03 12:16:07;;;;;;;60.22;44.80;;;6.20;99.90;;;;;;4984787;28;20038;-76
2023/01/03 12:18:51;;;;;;;59.60;45.50;;;6.20;99.90;;;;;;4983708;28;20378;-75
2023/01/03 12:21:19;;;;;;;60.50;45.13;;;6.20;99.90;;;;;;4970142;28;20046;-75
2023/01/03 12:23:52;;;;;;;63.10;46.80;;;6.30;99.90;;;;;;4982346;28;20057;-76
2023/01/03 12:26:21;;;;;;;57.20;43.35;;;6.30;99.90;;;;;;4968705;28;20058;-76
2023/01/03 12:29:14;;;;;;;57.50;44.00;;;6.30;99.90;;;;;;4969421;28;20132;-75
2023/01/03 12:32:05;;;;;;;55.70;42.72;;;6.30;99.90;;;;;;4952955;28;20133;-76
2023/01/03 12:34:53;;;;;;;59.38;44.33;;;6.30;99.90;;;;;;4985656;28;20042;-76
2023/01/03 12:37:32;;;;;;;61.28;44.50;;;6.30;99.90;;;;;;4981330;28;20058;-76
2023/01/03 12:40:08;;;;;;;60.70;43.13;;;6.30;99.90;;;;;;4969593;28;20675;-76
2023/01/03 12:42:45;;;;;;;67.40;45.60;;;6.40;99.90;;;;;;4959433;28;20414;-76
2023/01/03 12:45:48;;;;;;;72.07;46.60;;;6.40;99.90;;;;;;4971654;28;20038;-76
2023/01/03 12:48:30;;;;;;;69.47;45.80;;;6.40;99.90;;;;;;4954260;28;20401;-76
2023/01/03 12:50:55;;;;;;;70.13;44.97;;;6.40;99.90;;;;;;4974036;28;20492;-75
2023/01/03 12:53:35;;;;;;;59.05;41.63;;;6.40;99.90;;;;;;4968910;28;20052;-74
2023/01/03 12:56:01;;;;;;;63.72;41.75;;;6.40;99.90;;;;;;4982737;28;20088;-75
2023/01/03 12:59:02;;;;;;;56.78;40.30;;;6.40;99.90;;;;;;4973636;28;20058;-76
2023/01/03 13:01:52;;;;;;;69.20;42.70;;;6.50;99.90;;;;;;4983435;28;20054;-76
2023/01/03 13:04:34;;;;;;;59.53;38.35;;;6.50;99.90;;;;;;4963328;28;20425;-76
2023/01/03 13:07:21;;;;;;;53.20;38.00;;;6.50;99.90;;;;;;4986146;28;20051;-76
2023/01/03 13:09:59;;;;;;;55.88;39.50;;;6.60;99.90;;;;;;4959047;28;20054;-76
2023/01/03 13:12:33;;;;;;;57.58;38.88;;;6.60;99.90;;;;;;4970492;28;20050;-76
2023/01/03 13:15:12;;;;;;;55.35;37.22;;;6.60;99.90;;;;;;4969166;28;20045;-76
2023/01/03 13:17:44;;;;;;;58.03;40.03;;;6.60;99.90;;;;;;4967833;28;20179;-77
2023/01/03 13:20:28;;;;;;;55.88;38.20;;;6.70;99.90;;;;;;4966570;28;20443;-76
2023/01/03 13:23:18;;;;;;;52.88;37.65;;;6.70;99.90;;;;;;4982358;28;20487;-76
2023/01/03 13:25:44;;;;;;;60.53;39.05;;;6.70;99.90;;;;;;4954488;28;20042;-75
2023/01/03 13:28:19;;;;;;;56.22;38.33;;;6.70;99.90;;;;;;4939070;28;20559;-74
2023/01/03 13:30:45;;;;;;;56.95;36.53;;;6.70;99.90;;;;;;4997718;28;20413;-74
2023/01/03 13:33:11;;;;;;;51.67;38.00;;;6.70;99.90;;;;;;4951757;28;20540;-75
2023/01/03 13:35:42;;;;;;;52.00;37.20;;;6.80;99.90;;;;;;4983094;28;20050;-75
2023/01/03 13:38:30;;;;;;;53.03;37.28;;;6.80;99.90;;;;;;4998718;28;20046;-74
2023/01/03 13:40:59;;;;;;;51.97;36.17;;;6.80;99.90;;;;;;4965791;28;20030;-74
2023/01/03 13:43:32;;;;;;;49.78;34.92;;;6.80;99.90;;;;;;4984018;28;20571;-74
2023/01/03 13:46:24;;;;;;;50.92;35.28;;;6.90;99.90;;;;;;4985386;28;20682;-74
2023/01/03 13:49:16;;;;;;;51.08;36.03;;;6.90;99.90;;;;;;4983061;28;20129;-74
2023/01/03 13:51:51;;;;;;;53.40;36.30;;;6.90;99.90;;;;;;4965969;28;20517;-75
2023/01/03 13:54:17;;;;;;;53.72;36.40;;;6.90;99.90;;;;;;4984022;28;20161;-74
2023/01/03 13:56:43;;;;;;;48.90;35.97;;;6.90;99.90;;;;;;4981717;28;20045;-74
2023/01/03 13:59:17;;;;;;;49.05;36.35;;;6.90;99.90;;;;;;4969913;28;20947;-74
2023/01/03 14:02:02;;;;;;;46.00;33.47;;;6.90;99.90;;;;;;4985997;28;20176;-74
2023/01/03 14:04:45;;;;;;;45.42;33.42;;;6.90;99.90;;;;;;4971375;28;20034;-74